空港情報

日本の空港の気象及び、管制情報です。
気象情報はより詳細な情報が取得できる「AVIATION WEATER CENTER」 から取得しているため、VATSIMの気象情報と若干のタイムラグが生じることがあります。

VRCのフィールド設定用空港一覧はこちらをご覧ください。

RJCG Sapporo Control

RJCW / Wakkanai

NO RADAR

RADIO

08/26 2200x45

民間 civil

過去5時間に発表されたMETARがありません。

RJER / Rishiri

NO RADAR

REMOTE

25/07 1800x45

民間 civil

過去5時間に発表されたMETARがありません。

RJEB / Monbetsu

NO RADAR

REMOTE

32/14 2000x45

民間 civil

過去5時間に発表されたMETARがありません。

RJCM / Memanbetsu
VMC

NO RADAR

TOWER

36/18 2500x45

民間 civil

4900

360@6KT

29.68

RJCM 241100Z 36006KT 4900 -SHRA BR FEW003 SCT006 BKN010 09/08 Q1005

RJEC / Asahikawa
VMC

NO RADAR

TOWER

34/16 2500x60

民間 civil

9999

300@7KT

29.62

RJEC 241100Z 30007KT 9999 FEW008 SCT015 BKN030 13/11 Q1003

RJCN / Nakashibetsu

NO RADAR

RADIO

08/26 2000x45

民間 civil

過去5時間に発表されたMETARがありません。

RJCK / Kushiro
VMC

NO RADAR

TOWER

17/35 2500x45

民間 civil

9999

040@4KT

29.59

RJCK 241100Z 04004KT 010V080 9999 -SHRA FEW010 BKN030 15/14 Q1002

RJCO / Sapporo

RJCO_APP

TOWER

14/32 1500x30

共用 dual

過去5時間に発表されたMETARがありません。

RJCJ / Chitose

RJCC_APP

TOWER

36R/18L 3000x60
36L/18R 2700x45

自衛隊 military

過去5時間に発表されたMETARがありません。

RJCC / NewChitose
VMC

RJCC_APP

TOWER

01L/19R 3000x60
01R/19L 3000x60

民間 civil

9999

360@10KT

29.68

RJCC 241430Z 36010KT 9999 FEW008 BKN017 BKN050 13/10 Q1005 RMK 1ST008 5ST017 7CU050 A2969

RJCB / Obihiro
VMC

NO RADAR

TOWER

35/17 2500x45

民間 civil

8000

020@8KT

29.59

RJCB 241141Z 02008KT 8000 R35/1800D SHRA FEW010 SCT015 BKN020 14/13 Q1002 RMK 1ST010 3ST015 6CU020 A2961

RJEO / Okushiri

NO RADAR

REMOTE

12/30 1500x45

民間 civil

過去5時間に発表されたMETARがありません。

RJCH / Hakodate
VMC

RJCH_APP

TOWER

12/30 3000x45

民間 civil

9999

300@10KT

29.62

RJCH 241100Z 30010KT 9999 FEW020 SCT100 BKN150 17/13 Q1003

RJSA / Aomori
IMC

NO RADAR

TOWER

24/06 3000x60

民間 civil

8000

260@7KT

29.68

RJSA 241200Z 26007KT 230V290 8000 FEW001 SCT003 BKN005 17/17 Q1005

RJSO / Ominato

RJSM_APP

TOWER

04/22 600x45

自衛隊 military

過去5時間に発表されたMETARがありません。

RJSM / Misawa

RJSM_APP

TOWER

10/28 3050x45

共用 dual

過去5時間に発表されたMETARがありません。

RJSH / Hachinohe

RJSM_APP

TOWER

25/07 2250x45

自衛隊 military

過去5時間に発表されたMETARがありません。

RJSK / Akita
IMC

NO RADAR

TOWER

10/28 2500x60

民間 civil

8000

250@8KT

29.68

RJSK 241242Z 25008KT 210V270 8000 FEW004 BKN006 BKN009 19/18 Q1005 RMK 1ST004 5ST006 6ST009 A2970

RJSI / Hanamaki
VMC

NO RADAR

RADIO

20/02 2500x45

民間 civil

9999

270@4KT

29.65

RJSI 241000Z 27004KT 240V310 9999 FEW030 SCT/// 22/14 Q1004

RJSR / Odate-Noshiro
VMC

NO RADAR

REMOTE

11/29 2000x45

民間 civil

9999

260@5KT

29.65

RJSR 241000Z 26005KT 220V300 9999 -SHRA FEW010 SCT015 BKN030 20/17 Q1004

RJTG Tokyo Control

RJSY / Shonai
VMC

NO RADAR

RADIO

09/27 2000x45

民間 civil

9999

250@8KT

29.70

RJSY 241200Z 25008KT 9999 FEW030 SCT040 BKN070 20/18 Q1006

RJSC / Yamagata
VMC

NO RADAR

RADIO

01/19 2000x45

民間 civil

9999

010@11KT

29.68

RJSC 241000Z 01011KT 9999 FEW050 SCT/// 23/16 Q1005

RJST / Matsushima

RJSS_APP

TOWER

07/25 2071x46
15/33 1500x46

自衛隊 military

過去5時間に発表されたMETARがありません。

RJSS / Sendai
VMC

RJSS_APP

TOWER

27/09 3000x45
12/30 1200x45

民間 civil

9999

040@4KT

29.68

RJSS 241200Z 04004KT 9999 FEW070 BKN/// 20/20 Q1005

RJSD / Sado

NO RADAR

REMOTE

10/28 890x25

民間 civil

過去5時間に発表されたMETARがありません。

RJSN / Niigata
VMC

RJSN_APP

TOWER

10/28 2500x45
04/22 1314x45

民間 civil

9999

220@6KT

29.73

RJSN 241200Z 22006KT 200V270 9999 SCT080 24/16 Q1007

RJSF / Fukushima
VMC

NO RADAR

RADIO

01/19 2500x60

民間 civil

9999

340@8KT

29.73

RJSF 241100Z 34008KT 9999 FEW035 BKN/// 21/13 Q1007

RJAH / Ibaraki/Hyakuri
VMC

RJAH_APP

TOWER

03L/21R 2700x45
03R/21L 2700x45

共用 dual

7000

210@3KT

29.73

RJAH 241400Z 21003KT 7000 FEW015 BKN/// 20/19 Q1007

RJTT / Tokyo
VMC

RJTT_APP

TOWER

34LR/16RL 3000x60
04/22&05/23 2500x60

民間 civil

9999

210@3KT

29.73

RJTT 241430Z 21003KT 150V250 9999 FEW030 BKN/// 23/20 Q1007 BECMG 26005KT

RJAA / Narita
VMC

RJTT_APP

TOWER

34L/16R 4000x60
34R/16L 2500x60

民間 civil

5000

140@1KT

29.73

RJAA 241430Z 14001KT 5000 R16R/P2000N R16L/P2000N MIFG BR FEW010 BKN/// 18/17 Q1007 TEMPO 4000 BR MIFG

RJTL / Shimofusa

RJTT_APP

TOWER

19/01 2250x45

自衛隊 military

過去5時間に発表されたMETARがありません。

RJTE / Tateyama

RJTT_APP

TOWER

09/27 300x45

自衛隊 military

過去5時間に発表されたMETARがありません。

RJTO / Oshima

NO RADAR

RADIO

03/21 1800x45

民間 civil

過去5時間に発表されたMETARがありません。

RJTK / Kisarazu

NO RADAR

TOWER

02/20 1830x45

自衛隊 military

過去5時間に発表されたMETARがありません。

RJAN / Niijima

NO RADAR

REMOTE

11/29 800x25

自衛隊 military

過去5時間に発表されたMETARがありません。

RJAZ / Kozushima

NO RADAR

REMOTE

11/29 800x25

民間 civil

過去5時間に発表されたMETARがありません。

RJTH / Hachijojima

NO RADAR

RADIO

26/08 2000x45

民間 civil

過去5時間に発表されたMETARがありません。

RJTF / Chofu

NO RADAR

Flight Service

35/17 800x30

民間 civil

過去5時間に発表されたMETARがありません。

RJTQ / Miyake

NO RADAR

REMOTE

02/20 1200x30

民間 civil

過去5時間に発表されたMETARがありません。

RJTC / Tachikawa

NO RADAR

TOWER

01/19 900x45

自衛隊 military

過去5時間に発表されたMETARがありません。

RJTA / Atsugi

NO RADAR

TOWER

01/19 2438x45

自衛隊 military

過去5時間に発表されたMETARがありません。

RJTU / Utsunomiya

RJTY_APP

TOWER

01/19 1700x45

自衛隊 military

過去5時間に発表されたMETARがありません。

RJTJ / Iruma

RJTY_APP

TOWER

17/35 2000x45

自衛隊 military

過去5時間に発表されたMETARがありません。

RJTY / Yokota
VMC

RJTY_APP

TOWER

18/36 3353x60

自衛隊 military

9999

000@0KT

29.81

RJTY 241356Z AUTO 00000KT 10SM CLR 22/19 A2981 RMK AO2 SLP093 T02170187 FZRANO $

RJAF / Matsumoto

NO RADAR

RADIO

18/36 2000x45

民間 civil

過去5時間に発表されたMETARがありません。

RJNS / Shizuoka
IMC

NO RADAR

RADIO

30/12 2500x60

民間 civil

9999

260@6KT

29.76

RJNS 241200Z 26006KT 9999 FEW005 SCT006 BKN008 22/22 Q1008

RJNY / Yaizu-Shizuhama
VMC

NO RADAR

TOWER

27/09 1500x45

自衛隊 military

9999

090@3KT

29.76

RJNY 241341Z 09003KT 9999 FEW010 BKN013 BKN/// 22/20 Q1008 RMK 2CU010 7CU013 A2977

RJNH / Hamamatsu

RJNH_APP

TOWER

09/27 2550x60

自衛隊 military

過去5時間に発表されたMETARがありません。

RJGG / Chubu
VMC

RJGG_APP

TOWER

36/18 3500x60

民間 civil

9999

290@8KT

29.79

RJGG 241430Z 29008KT CAVOK 24/19 Q1009 NOSIG

RJNA / Nagoya

RJGG_APP

TOWER

34/16 2740x45

民間 civil

過去5時間に発表されたMETARがありません。

RJNG / Gifu

RJGG_APP

TOWER

28/10 2710x46

自衛隊 military

過去5時間に発表されたMETARがありません。

RJOE / Akeno

RJOE_APP

TOWER

13/31 500x30
04/22 500x30

自衛隊 military

過去5時間に発表されたMETARがありません。

RJNK / Komatsu
VMC

RJNK_APP

TOWER

06/24 2700x45

共用 dual

9999

200@8KT

29.82

RJNK 241400Z 20008KT 9999 FEW150 SCT/// 21/13 Q1010

RJNW / Noto
VMC

NO RADAR

RADIO

25/07 2000x45

民間 civil

9999

240@10KT

29.76

RJNW 241000Z 24010KT 9999 FEW030 21/18 Q1008

RJNT / Toyama
VMC

NO RADAR

TOWER

20/02 2000x45

民間 civil

9999

240@4KT

29.76

RJNT 241200Z 24004KT 9999 FEW030 BKN/// 23/18 Q1008

RJNF / Fukui

NO RADAR

REMOTE

18/36 1200x30

民間 civil

過去5時間に発表されたMETARがありません。

RJBD / Nanki-Shirahama
VMC

NO RADAR

RADIO

15/33 2000x45

民間 civil

9999

160@3KT

29.79

RJBD 241000Z 16003KT 110V230 9999 FEW030 BKN/// 23/21 Q1009

RJOY / Yao
VMC

RJBB_APP

TOWER

27/09 1490x45
13/31 1200x30

民間 civil

9999

260@3KT

29.76

RJOY 241000Z 26003KT 220V280 9999 FEW030 BKN/// 27/15 Q1008

RJOO / Osaka
VMC

RJBB_APP

TOWER

32L/14R 3000x60
32R/14L 1830x45

民間 civil

9999

230@4KT

29.76

RJOO 241100Z 23004KT 190V270 CAVOK 25/15 Q1008 RMK A2979

RJOB / Okayama
VMC

RJBB_APP

TOWER

07/25 3000x45

民間 civil

9999

270@4KT

29.82

RJOB 241200Z 27004KT 9999 FEW020 BKN/// 23/18 Q1010

RJBB / Kansai
VMC

RJBB_APP

TOWER

06R/24L 3500x60
06L/24R 4000x60

民間 civil

9999

210@8KT

29.82

RJBB 241430Z AUTO 21008KT 9999 NCD 22/20 Q1010 NOSIG

RJBE / Kobe
VMC

RJBB_APP

TOWER

09/27 2500x60

民間 civil

9999

250@5KT

29.79

RJBE 241200Z 25005KT CAVOK 22/20 Q1009

RJBT / Tajima

NO RADAR

REMOTE

01/19 1200x30

民間 civil

過去5時間に発表されたMETARがありません。

RJOR / Tottori
VMC

NO RADAR

RADIO

10/28 2000x45

民間 civil

9999

010@3KT

29.79

RJOR 241200Z 01003KT 340V060 CAVOK 22/19 Q1009

RJNO / Oki

NO RADAR

REMOTE

07/25 2000x45

民間 civil

過去5時間に発表されたMETARがありません。

RJOH / Miho
VMC

RJOH_APP

TOWER

25/07 2500x45

共用 dual

9999

260@7KT

29.79

RJOH 241400Z 26007KT 9999 FEW030 23/17 Q1009

RJOC / Izumo
VMC

RJOH_APP

RADIO

07/25 2000x45

共用 dual

9999

240@13KT

29.76

RJOC 241100Z 24013KT CAVOK 23/19 Q1008

RJDG Fukuoka Control

RJOT / Takamatsu
VMC

RJBB_APP

TOWER

26/08 2500x60

民間 civil

9999

150@2KT

29.82

RJOT 241200Z 15002KT CAVOK 21/19 Q1010

RJOK / Kochi
VMC

RJBB_APP

TOWER

32/14 2500x45

民間 civil

9999

100@5KT

29.79

RJOK 241100Z 10005KT CAVOK 25/20 Q1009

RJOS / Tokushima

RJOS_APP

TOWER

29/11 2500x45

共用 dual

過去5時間に発表されたMETARがありません。

RJOA / Hiroshima
VMC

RJOA_APP

TOWER

10/28 3000x60

民間 civil

9999

000@1KT

29.88

RJOA 241300Z VRB01KT CAVOK 21/18 Q1012

RJBH / Hiroshimanishi

NO RADAR

Flight Service

04/22 1800x45

民間 civil

過去5時間に発表されたMETARがありません。

RJOI / Iwakuni
VMC

RJOI_APP

TOWER

02/20 2440x60

共用 dual

9999

320@3KT

29.85

RJOI 241355Z 32003KT 9999 FEW240 24/19 A2985 RMK SLP109 T02390189

RJOM / Matsuyama
VMC

RJOI_APP

TOWER

14/32 2500x45

民間 civil

9999

140@7KT

29.79

RJOM 241200Z 14007KT CAVOK 24/19 Q1009

RJOZ / Ozuki

RJFZ_APP

TOWER

35/17 1201x61
12/30 899x46

自衛隊 military

過去5時間に発表されたMETARがありません。

RJOF / Hofu

RJFZ_APP

TOWER

30/12 1180x60
01/19 1480x45

自衛隊 military

過去5時間に発表されたMETARがありません。

RJDC / Yamaguchi-Ube
VMC

RJFZ_APP

RADIO

07/25 2500x45

民間 civil

9999

000@1KT

29.82

RJDC 241200Z VRB01KT CAVOK 23/21 Q1010

RJFR / Kitakyushu
VMC

RJFZ_APP

TOWER

18/36 2500x60

民間 civil

9999

150@3KT

29.82

RJFR 241400Z 15003KT CAVOK 23/20 Q1010

RJFZ / Tsuiki

RJFZ_APP

TOWER

25/07 2399x46

自衛隊 military

過去5時間に発表されたMETARがありません。

RJOW / Iwami
VMC

NO RADAR

REMOTE

11/29 2000x45

民間 civil

9999

000@0KT

29.76

RJOW 241000Z 00000KT CAVOK 25/21 Q1008

RJDT / Tsushima
VMC

NO RADAR

REMOTE

32/14 1900x45

民間 civil

9999

090@3KT

29.76

RJDT 241100Z 09003KT 050V120 CAVOK 23/16 Q1008

RJFF / Fukuoka
VMC

RJFF_APP

TOWER

16/34 2800x60

民間 civil

9999

150@7KT

29.82

RJFF 241430Z AUTO 15007KT 9999 NCD 23/20 Q1010 RMK A2984

RJFS / Saga
VMC

RJFF_APP

RADIO

29/11 2000x45

民間 civil

9999

220@8KT

29.82

RJFS 241200Z 22008KT CAVOK 24/21 Q1010

RJFA / Ashiya

RJFF_APP

TOWER

12/30 1640x46

自衛隊 military

過去5時間に発表されたMETARがありません。

RJDB / Iki

RJFF_APP

REMOTE

20/02 1200x30

民間 civil

過去5時間に発表されたMETARがありません。

RJFO / Oita
VMC

RJFO_APP

TOWER

01/19 3000x45

民間 civil

9999

260@3KT

29.82

RJFO 241300Z 26003KT CAVOK 22/21 Q1010

RJFU / Nagasaki
VMC

RJFU_APP

TOWER

32/14 3000x60

民間 civil

9999

150@4KT

29.82

RJFU 241200Z 15004KT 9999 FEW030 22/19 Q1010

RJDU / Omura

RJFU_APP

TOWER

18/36 1200x30

自衛隊 military

過去5時間に発表されたMETARがありません。

RJFE / Fukue

NO RADAR

RADIO

03/21 2000x45

民間 civil

過去5時間に発表されたMETARがありません。

RJDO / Ojika

NO RADAR

REMOTE

03/21 800x30

民間 civil

過去5時間に発表されたMETARがありません。

RJDK / Kamigoto

NO RADAR

REMOTE

17/35 800x30

民間 civil

過去5時間に発表されたMETARがありません。

RJDA / Amakusa

NO RADAR

Flight Service

31/13 1000x30

民間 civil

過去5時間に発表されたMETARがありません。

RJFT / Kumamoto
VMC

RJFT_APP

TOWER

07/25 3000x45

民間 civil

9999

170@3KT

29.85

RJFT 241200Z 17003KT 120V210 CAVOK 21/19 Q1011

RJFN / Nyutabaru

RJFM_APP

TOWER

28/10 2701x46

自衛隊 military

過去5時間に発表されたMETARがありません。

RJFM / Miyazaki
VMC

RJFM_APP

TOWER

27/09 2500x45

民間 civil

9999

250@7KT

29.79

RJFM 241200Z 25007KT 9999 FEW030 SCT/// 25/21 Q1009

RJFK / Kagoshima
VMC

RJFK_APP

TOWER

34/16 3000x45

民間 civil

9999

260@4KT

29.88

RJFK 241200Z 26004KT 230V290 9999 FEW030 BKN/// 21/19 Q1012 RMK 1CU030 A2989

RJFY / Kanoya

RJFY_APP

TOWER

26L/08R 2250x45
26R/08L 1200x40

自衛隊 military

過去5時間に発表されたMETARがありません。

RJFG / Tanegashima

NO RADAR

RADIO

31/13 2000x45

民間 civil

過去5時間に発表されたMETARがありません。

RJFC / Yakushima

NO RADAR

REMOTE

14/32 1500x45

民間 civil

過去5時間に発表されたMETARがありません。

RORG Naha Control

ROAH / Naha
VMC

ROAH_APP

TOWER

36/18 3000x45

共用 dual

9999

180@7KT

29.88

ROAH 241430Z 18007KT 9999 FEW010 SCT015 BKN/// 28/26 Q1012

RORA / Aguni

ROAH_APP

REMOTE

01/19 800x25

民間 civil

過去5時間に発表されたMETARがありません。

ROKJ / Kumejima

ROAH_APP

REMOTE

03/21 2000x45

民間 civil

過去5時間に発表されたMETARがありません。

RODN / Kadena
VMC

ROAH_APP

TOWER

05L/23R 3688x91
05R/23L 3688x61

自衛隊 military

9999

150@5KT

29.92

RODN 241356Z AUTO 15005KT 10SM CLR 28/25 A2992 RMK AO2 SLP137 T02780254 $

ROTM / Futenma

ROAH_APP

TOWER

06/24 2740x45

自衛隊 military

過去5時間に発表されたMETARがありません。

RORS / Shimojishima
VMC

RORS_APP

TOWER

17/35 3000x60

民間 civil

9999

180@10KT

29.82

RORS 241000Z 18010KT 9999 FEW015 BKN/// 29/26 Q1010

ROMY / Miyako
VMC

RORS_APP

TOWER

04/22 2000x45

民間 civil

9999

180@7KT

29.85

ROMY 241100Z 18007KT 9999 FEW010 BKN/// 28/26 Q1011

ROIG / New Ishigaki
VMC

RORS_APP

TOWER

22/04 2000x45

民間 civil

9999

170@7KT

29.85

ROIG 241100Z 17007KT 140V220 9999 FEW008 SCT012 BKN/// 28/27 Q1011

RORT / Tarama

RORS_APP

REMOTE

36/18 1500x45

民間 civil

過去5時間に発表されたMETARがありません。

RJKA / Amami
VMC

NO RADAR

RADIO

03/21 2000x45

民間 civil

9999

160@7KT

29.85

RJKA 241000Z 16007KT 9999 -SHRA FEW005 BKN010 BKN030 24/22 Q1011

RJKI / Kikai

NO RADAR

REMOTE

07/25 1200x30

民間 civil

過去5時間に発表されたMETARがありません。

RJKN / Tokunoshima

NO RADAR

REMOTE

19/01 2000x45

民間 civil

過去5時間に発表されたMETARがありません。

RJKB / Okierabu

NO RADAR

REMOTE

04/22 1350x45

民間 civil

過去5時間に発表されたMETARがありません。

RORY / Yoron
VMC

NO RADAR

REMOTE

32/14 1320x30

民間 civil

9999

190@9KT

29.88

RORY 241400Z AUTO 19009KT 9999 NCD 27/26 Q1012

RORK / Kitadaito

NO RADAR

REMOTE

03/21 1500x45

民間 civil

過去5時間に発表されたMETARがありません。

ROMD / Minami-daito

NO RADAR

REMOTE

02/20 1500x45

民間 civil

過去5時間に発表されたMETARがありません。

ROYN / Yonaguni
VMC

NO RADAR

REMOTE

26/08 2000x45

民間 civil

9999

170@9KT

29.85

ROYN 241400Z AUTO 17009KT 140V210 9999 BKN011 28/27 Q1011

RORH / Hateruma

NO RADAR

REMOTE

02/20 800x25

民間 civil

過去5時間に発表されたMETARがありません。

ROKR / Kerama

NO RADAR

REMOTE

02/20 800x25

民間 civil

過去5時間に発表されたMETARがありません。